Startpagina
METAR-TAF:

METAR-TAF

Vliegvelden :

Wittmund, Duitsland

breedte: 53-33N, lengte: 007-40E, hoogte: 8 m

Actueel weer

Dit bericht is 47 minuten geleden gemaakt, om 14:20 UTC
Wind 7 kt uit het westzuidwesten
Temperatuur 5°C
Vochtigheid 87%
Druk 1029 hPa
Zicht 10 km of meer
Gebroken wolken op 700 ft

METAR: ETNT 231420Z 25007KT 9999 BKN007 05/03 Q1029 GRN GRN BECMG RED

Tijdstip: 16:07 (15:07 UTC)

Verwachting

Dit bericht is 42 minuten geleden gemaakt, om 14:25 UTC
Verwachting geldig van 23 om 15 UTC tot 23 om 24 UTC
Wind 3 kt uit het zuidzuidwesten
Zicht: 8000 m
Gebroken wolken op 800 ft
Wijzigt naar
van 23 om 16 UTC tot 23 om 17 UTC
Wind 6 kt uit het zuidwesten
Zicht: 0200 m
Geheel bewolkt op 100 ft
Gebroken wolken op 4000 ft
mist

TAF: ETNT 231425Z 2315/2324 20003KT 8000 NSW BKN008 BECMG 2316/2317 22006KT 0200 FG OVC001 BKN040 BY ETGL

Waarnemingen en weersverwachtingen van meer dan 4000 vliegvelden (METAR en TAF).

De beschikbare stations zijn de gele en rode punten op de kaart.

Ga met uw muis naar het station om de naam te zien.

Klik dan om waarnemingen en weersverwachtingen te zien.

kaart wijzigen: klik op de groene knoppen met een zwart kruis om in te zoomen, op de groene knop met een streepje om uit te zoomen of op de groene pijlen voor aangrenzende kaarten.


METAR-TAF: